Weather History for KSHL - July, 2013

Change the Weather History Date:

Saturday, July 13, 2013

  Actual Average Record
Temperature  
Mean Temperature 78 °F -  
Max Temperature 87 °F 84 °F 97 °F (1980)
Min Temperature 69 °F 61 °F 42 °F (2007)
Cooling Degree Days 13    
Growing Degree Days 28 (Base 50)    
Moisture  
Dew Point 67 °F    
Average Humidity 69    
Maximum Humidity 88    
Minimum Humidity 58    
Precipitation  
Precipitation 0.05 in - - ()
Sea Level Pressure  
Sea Level Pressure 29.95 in    
Wind  
Wind Speed 13 mph (SSE)    
Max Wind Speed 18 mph    
Max Gust Speed 26 mph    
Visibility 10 miles    
Events Rain    
Averages and records for this station are not official NWS values.
T = Trace of Precipitation, MM = Missing Value Source: NWS Daily Summary

Daily Weather History Graph

Daily Weather History Graph

Search for Another Location

Airport or City:

Trip Planner

Search our weather history database for the weather conditions in past years. The results will help you decide how hot, cold, wet, or windy it might be!

Date:

Astronomy

Jul. 13, 2013 Rise Set
Actual Time 5:55 AM CDT 9:02 PM CDT
Civil Twilight 5:21 AM CDT 9:36 PM CDT
Nautical Twilight 4:37 AM CDT 10:20 PM CDT
Astronomical Twilight 3:43 AM CDT 11:13 PM CDT
Moon 11:23 AM CDT (7/13) 11:32 PM CDT (7/13)
Length of Visible Light 16h 15m
Length of Day
15h 06m
Waxing Crescent, 26% of the Moon is Illuminated
Jul 13
Waxing Crescent
Jul 15
First Quarter
Jul 22
Full
Jul 29
Last Quarter
Aug 6
New

Hourly Weather History & Observations

Time (CDT) Temp. Heat Index Dew Point Humidity Pressure Visibility Wind Dir Wind Speed Gust Speed Precip Events Conditions
12:15 AM 77.0 °F - 62.6 °F 61% 29.94 in 10.0 mi SSE 16.1 mph - N/A   Unknown
12:35 AM 77.0 °F - 62.6 °F 61% 29.94 in 10.0 mi SSE 15.0 mph - N/A   Unknown
12:55 AM 75.2 °F - 62.6 °F 65% 29.94 in 10.0 mi South 15.0 mph - N/A   Scattered Clouds
1:15 AM 75.2 °F - 62.6 °F 65% 29.94 in 10.0 mi South 12.7 mph 20.7 mph N/A   Mostly Cloudy
1:35 AM 75.2 °F - 62.6 °F 65% 29.95 in 10.0 mi SSE 13.8 mph - N/A   Overcast
1:55 AM 75.2 °F - 62.6 °F 65% 29.94 in 10.0 mi South 12.7 mph 20.7 mph N/A   Mostly Cloudy
2:15 AM 75.2 °F - 60.8 °F 61% 29.93 in 10.0 mi South 13.8 mph 21.9 mph N/A   Unknown
2:35 AM 75.2 °F - 60.8 °F 61% 29.93 in 10.0 mi South 11.5 mph 19.6 mph N/A   Unknown
2:55 AM 75.2 °F - 60.8 °F 61% 29.94 in 10.0 mi South 11.5 mph - N/A   Unknown
3:15 AM 75.2 °F - 60.8 °F 61% 29.95 in 10.0 mi South 11.5 mph - N/A   Unknown
3:35 AM 75.2 °F - 62.6 °F 65% 29.96 in 10.0 mi South 8.1 mph - N/A   Unknown
3:55 AM 75.2 °F - 62.6 °F 65% 29.96 in 10.0 mi SW 4.6 mph - N/A   Unknown
4:15 AM 73.4 °F - 62.6 °F 69% 29.95 in 10.0 mi South 5.8 mph - N/A Rain Light Rain
4:35 AM 73.4 °F - 62.6 °F 69% 29.94 in 10.0 mi South 8.1 mph - N/A   Unknown
4:55 AM 73.4 °F - 62.6 °F 69% 29.94 in 10.0 mi South 9.2 mph - N/A   Unknown
5:15 AM 73.4 °F - 62.6 °F 69% 29.95 in 10.0 mi South 10.4 mph - N/A   Mostly Cloudy
5:35 AM 73.4 °F - 62.6 °F 69% 29.95 in 10.0 mi South 12.7 mph - N/A   Partly Cloudy
5:55 AM 73.4 °F - 64.4 °F 73% 29.94 in 9.0 mi SSW 10.4 mph 16.1 mph N/A   Partly Cloudy
6:15 AM 71.6 °F - 64.4 °F 78% 29.95 in 9.0 mi South 10.4 mph - N/A   Mostly Cloudy
6:35 AM 71.6 °F - 64.4 °F 78% 29.95 in 10.0 mi South 8.1 mph 13.8 mph N/A   Clear
6:55 AM 71.6 °F - 64.4 °F 78% 29.95 in 10.0 mi South 10.4 mph - N/A   Scattered Clouds
7:15 AM 71.6 °F - 64.4 °F 78% 29.95 in 10.0 mi SSE 12.7 mph - N/A   Scattered Clouds
7:35 AM 71.6 °F - 64.4 °F 78% 29.95 in 10.0 mi South 10.4 mph 18.4 mph N/A   Scattered Clouds
7:55 AM 69.8 °F - 66.2 °F 88% 29.94 in 3.0 mi SSE 11.5 mph 18.4 mph 0.04 in Rain Light Rain
8:15 AM 69.8 °F - 66.2 °F 88% 29.94 in 10.0 mi SSE 11.5 mph - N/A   Scattered Clouds
8:35 AM 69.8 °F - 66.2 °F 88% 29.94 in 9.0 mi SSE 12.7 mph - N/A Rain Light Rain
8:55 AM 71.6 °F - 64.4 °F 78% 29.95 in 10.0 mi South 10.4 mph - 0.01 in   Mostly Cloudy
9:15 AM 71.6 °F - 64.4 °F 78% 29.95 in 10.0 mi South 12.7 mph 19.6 mph N/A   Overcast
9:35 AM 73.4 °F - 64.4 °F 73% 29.96 in 10.0 mi South 9.2 mph 15.0 mph N/A   Mostly Cloudy
9:55 AM 75.2 °F - 66.2 °F 73% 29.95 in 10.0 mi SSE 12.7 mph - N/A   Partly Cloudy
10:15 AM 78.8 °F - 66.2 °F 65% 29.97 in 10.0 mi South 12.7 mph 19.6 mph N/A   Clear
10:35 AM 78.8 °F - 68.0 °F 69% 29.96 in 9.0 mi South 13.8 mph - N/A   Clear
10:55 AM 80.6 °F 83.2 °F 68.0 °F 65% 29.96 in 10.0 mi South 11.5 mph - N/A   Partly Cloudy
11:15 AM 78.8 °F - 68.0 °F 69% 29.96 in 10.0 mi SSE 11.5 mph - N/A   Partly Cloudy
11:35 AM 80.6 °F 83.9 °F 69.8 °F 70% 29.95 in 10.0 mi SSE 12.7 mph - N/A   Clear
11:55 AM 82.4 °F 86.3 °F 69.8 °F 66% 29.95 in 10.0 mi SSE 11.5 mph 17.3 mph N/A   Clear
12:15 PM 82.4 °F 86.3 °F 69.8 °F 66% 29.95 in 10.0 mi SE 15.0 mph - N/A   Clear
12:35 PM 82.4 °F 86.3 °F 69.8 °F 66% 29.96 in 10.0 mi SSE 11.5 mph - N/A   Clear
12:55 PM 84.2 °F 89.6 °F 71.6 °F 66% 29.96 in 10.0 mi SE 11.5 mph - N/A   Clear
1:15 PM 86.0 °F 91.8 °F 71.6 °F 62% 29.96 in 10.0 mi SSE 13.8 mph - N/A   Clear
1:35 PM 86.0 °F 91.8 °F 71.6 °F 62% 29.96 in 10.0 mi SSE 15.0 mph - N/A   Clear
1:55 PM 86.0 °F 91.8 °F 71.6 °F 62% 29.95 in 10.0 mi SSE 18.4 mph 24.2 mph N/A   Clear
2:15 PM 86.0 °F 90.4 °F 69.8 °F 58% 29.95 in 10.0 mi SSE 17.3 mph 23.0 mph N/A   Clear
2:35 PM 86.0 °F 91.8 °F 71.6 °F 62% 29.95 in 10.0 mi SSE 12.7 mph - N/A   Clear
2:55 PM 86.0 °F 91.8 °F 71.6 °F 62% 29.94 in 10.0 mi SSE 16.1 mph 24.2 mph N/A   Clear
3:15 PM 86.0 °F 91.8 °F 71.6 °F 62% 29.95 in 10.0 mi SSE 13.8 mph 21.9 mph N/A   Clear
3:35 PM 86.0 °F 91.8 °F 71.6 °F 62% 29.94 in 10.0 mi South 13.8 mph 24.2 mph N/A   Clear
3:55 PM 87.8 °F 93.8 °F 71.6 °F 58% 29.93 in 10.0 mi South 17.3 mph 26.5 mph N/A   Clear
4:15 PM 87.8 °F 93.8 °F 71.6 °F 58% 29.93 in 10.0 mi South 17.3 mph 24.2 mph N/A   Clear
4:35 PM 87.8 °F 93.8 °F 71.6 °F 58% 29.94 in 10.0 mi South 17.3 mph 25.3 mph N/A   Clear
4:55 PM 87.8 °F 93.8 °F 71.6 °F 58% 29.93 in 10.0 mi South 15.0 mph 25.3 mph N/A   Clear
5:15 PM 87.8 °F 95.6 °F 73.4 °F 62% 29.93 in 10.0 mi SSE 15.0 mph 23.0 mph N/A   Clear
5:35 PM 86.0 °F 93.4 °F 73.4 °F 66% 29.93 in 10.0 mi SSE 18.4 mph - N/A   Clear
5:55 PM 86.0 °F 93.4 °F 73.4 °F 66% 29.93 in 10.0 mi SSE 13.8 mph - N/A   Clear
6:15 PM 82.4 °F 88.2 °F 73.4 °F 74% 29.93 in 10.0 mi SE 9.2 mph - N/A   Clear
6:35 PM 82.4 °F 88.2 °F 73.4 °F 74% 29.94 in 10.0 mi ESE 11.5 mph - N/A   Clear
6:55 PM 80.6 °F 84.6 °F 71.6 °F 74% 29.94 in 10.0 mi ESE 9.2 mph - N/A   Clear
7:15 PM 80.6 °F 85.4 °F 73.4 °F 79% 29.94 in 10.0 mi SE 11.5 mph - N/A   Clear
7:35 PM 80.6 °F 84.6 °F 71.6 °F 74% 29.94 in 10.0 mi SE 11.5 mph 18.4 mph N/A   Clear
7:55 PM 80.6 °F 84.6 °F 71.6 °F 74% 29.94 in 10.0 mi SE 13.8 mph - N/A   Clear
8:15 PM 80.6 °F 84.6 °F 71.6 °F 74% 29.94 in 10.0 mi SE 15.0 mph - N/A   Clear
8:35 PM 78.8 °F - 69.8 °F 74% 29.95 in 10.0 mi SE 17.3 mph - N/A   Clear
8:55 PM 78.8 °F - 69.8 °F 74% 29.94 in 10.0 mi SE 15.0 mph 21.9 mph N/A   Clear
9:15 PM 78.8 °F - 69.8 °F 74% 29.94 in 10.0 mi SE 13.8 mph 21.9 mph N/A   Clear
9:35 PM 77.0 °F - 69.8 °F 78% 29.96 in 10.0 mi SE 9.2 mph - N/A   Clear
9:55 PM 77.0 °F - 68.0 °F 74% 29.97 in 10.0 mi SE 12.7 mph 18.4 mph N/A   Clear
10:15 PM 77.0 °F - 68.0 °F 74% 29.98 in 10.0 mi SE 12.7 mph - N/A   Clear
10:35 PM 77.0 °F - 68.0 °F 74% 29.99 in 10.0 mi SE 13.8 mph 19.6 mph N/A   Clear
10:55 PM 75.2 °F - 68.0 °F 78% 30.00 in 10.0 mi SE 13.8 mph 19.6 mph N/A   Clear
11:15 PM 75.2 °F - 68.0 °F 78% 30.00 in 10.0 mi SE 12.7 mph - N/A   Clear
11:35 PM 75.2 °F - 68.0 °F 78% 30.01 in 10.0 mi SE 11.5 mph 18.4 mph N/A   Clear
11:55 PM 75.2 °F - 66.2 °F 73% 30.02 in 10.0 mi SE 10.4 mph 18.4 mph N/A   Clear